sensor_id;sensor_type;location;lat;lon;timestamp;P1;durP1;ratioP1;P2;durP2;ratioP2
75691;SDS011;64307;52.508;6.090;2023-04-06T00:01:21;9.55;;;5.45;;
75691;SDS011;64307;52.508;6.090;2023-04-06T00:03:47;13.23;;;5.80;;
75691;SDS011;64307;52.508;6.090;2023-04-06T00:06:12;12.35;;;5.38;;
75691;SDS011;64307;52.508;6.090;2023-04-06T00:08:37;11.65;;;5.38;;
75691;SDS011;64307;52.508;6.090;2023-04-06T00:11:03;10.50;;;5.57;;
75691;SDS011;64307;52.508;6.090;2023-04-06T00:13:28;14.65;;;5.22;;
75691;SDS011;64307;52.508;6.090;2023-04-06T00:15:53;12.27;;;5.65;;
75691;SDS011;64307;52.508;6.090;2023-04-06T00:18:19;10.27;;;5.57;;
75691;SDS011;64307;52.508;6.090;2023-04-06T00:20:44;10.32;;;5.28;;
75691;SDS011;64307;52.508;6.090;2023-04-06T00:23:10;9.77;;;5.20;;
75691;SDS011;64307;52.508;6.090;2023-04-06T00:25:35;9.80;;;5.53;;
75691;SDS011;64307;52.508;6.090;2023-04-06T00:28:01;10.05;;;5.50;;
75691;SDS011;64307;52.508;6.090;2023-04-06T00:30:26;10.07;;;5.50;;
75691;SDS011;64307;52.508;6.090;2023-04-06T00:32:51;11.27;;;5.50;;
75691;SDS011;64307;52.508;6.090;2023-04-06T00:35:17;9.35;;;5.22;;
75691;SDS011;64307;52.508;6.090;2023-04-06T00:37:46;13.88;;;5.70;;
75691;SDS011;64307;52.508;6.090;2023-04-06T00:40:12;11.15;;;5.80;;
75691;SDS011;64307;52.508;6.090;2023-04-06T00:42:38;8.48;;;5.18;;
75691;SDS011;64307;52.508;6.090;2023-04-06T00:45:03;11.40;;;6.13;;
75691;SDS011;64307;52.508;6.090;2023-04-06T00:47:29;10.30;;;4.78;;
75691;SDS011;64307;52.508;6.090;2023-04-06T00:49:55;8.88;;;5.03;;
75691;SDS011;64307;52.508;6.090;2023-04-06T00:52:21;11.30;;;5.55;;
75691;SDS011;64307;52.508;6.090;2023-04-06T00:54:46;12.45;;;6.22;;
75691;SDS011;64307;52.508;6.090;2023-04-06T00:57:12;13.68;;;5.30;;
75691;SDS011;64307;52.508;6.090;2023-04-06T00:59:38;11.10;;;5.10;;
75691;SDS011;64307;52.508;6.090;2023-04-06T01:02:04;9.75;;;5.25;;
75691;SDS011;64307;52.508;6.090;2023-04-06T01:04:29;9.80;;;5.15;;
75691;SDS011;64307;52.508;6.090;2023-04-06T01:09:21;9.17;;;5.00;;
75691;SDS011;64307;52.508;6.090;2023-04-06T01:11:47;9.48;;;5.15;;
75691;SDS011;64307;52.508;6.090;2023-04-06T01:14:12;11.15;;;5.53;;
75691;SDS011;64307;52.508;6.090;2023-04-06T01:16:39;11.70;;;5.45;;
75691;SDS011;64307;52.508;6.090;2023-04-06T01:19:09;10.55;;;5.28;;
75691;SDS011;64307;52.508;6.090;2023-04-06T01:21:36;9.95;;;5.47;;
75691;SDS011;64307;52.508;6.090;2023-04-06T01:24:02;11.20;;;5.05;;
75691;SDS011;64307;52.508;6.090;2023-04-06T01:26:27;10.13;;;5.45;;
75691;SDS011;64307;52.508;6.090;2023-04-06T01:28:54;10.20;;;5.50;;
75691;SDS011;64307;52.508;6.090;2023-04-06T01:31:20;18.45;;;5.20;;
75691;SDS011;64307;52.508;6.090;2023-04-06T01:33:45;10.25;;;5.72;;
75691;SDS011;64307;52.508;6.090;2023-04-06T01:36:11;11.23;;;6.30;;
75691;SDS011;64307;52.508;6.090;2023-04-06T01:38:37;11.00;;;5.40;;
75691;SDS011;64307;52.508;6.090;2023-04-06T01:41:02;10.20;;;5.70;;
75691;SDS011;64307;52.508;6.090;2023-04-06T01:43:28;10.23;;;5.47;;
75691;SDS011;64307;52.508;6.090;2023-04-06T01:45:53;11.75;;;5.57;;
75691;SDS011;64307;52.508;6.090;2023-04-06T01:48:18;10.07;;;5.38;;
75691;SDS011;64307;52.508;6.090;2023-04-06T01:50:44;10.20;;;5.53;;
75691;SDS011;64307;52.508;6.090;2023-04-06T01:53:09;10.35;;;5.43;;
75691;SDS011;64307;52.508;6.090;2023-04-06T01:55:35;12.63;;;5.88;;
75691;SDS011;64307;52.508;6.090;2023-04-06T01:58:00;10.25;;;5.72;;
75691;SDS011;64307;52.508;6.090;2023-04-06T02:00:26;10.20;;;5.22;;
75691;SDS011;64307;52.508;6.090;2023-04-06T02:02:51;11.20;;;5.85;;
75691;SDS011;64307;52.508;6.090;2023-04-06T02:05:16;11.10;;;5.32;;
75691;SDS011;64307;52.508;6.090;2023-04-06T02:07:41;12.00;;;5.72;;
75691;SDS011;64307;52.508;6.090;2023-04-06T02:10:12;10.75;;;5.38;;
75691;SDS011;64307;52.508;6.090;2023-04-06T02:12:39;10.68;;;5.53;;
75691;SDS011;64307;52.508;6.090;2023-04-06T02:15:05;10.73;;;5.50;;
75691;SDS011;64307;52.508;6.090;2023-04-06T02:17:31;11.10;;;5.78;;
75691;SDS011;64307;52.508;6.090;2023-04-06T02:19:57;17.42;;;6.35;;
75691;SDS011;64307;52.508;6.090;2023-04-06T02:22:22;12.43;;;5.90;;
75691;SDS011;64307;52.508;6.090;2023-04-06T02:24:47;12.02;;;5.65;;
75691;SDS011;64307;52.508;6.090;2023-04-06T02:27:13;13.02;;;5.72;;
75691;SDS011;64307;52.508;6.090;2023-04-06T02:29:39;10.32;;;5.90;;
75691;SDS011;64307;52.508;6.090;2023-04-06T02:32:05;14.27;;;6.35;;
75691;SDS011;64307;52.508;6.090;2023-04-06T02:34:30;11.35;;;5.88;;
75691;SDS011;64307;52.508;6.090;2023-04-06T02:36:56;12.48;;;6.38;;
75691;SDS011;64307;52.508;6.090;2023-04-06T02:39:21;13.13;;;5.97;;
75691;SDS011;64307;52.508;6.090;2023-04-06T02:41:46;11.23;;;5.20;;
75691;SDS011;64307;52.508;6.090;2023-04-06T02:44:12;11.85;;;6.38;;
75691;SDS011;64307;52.508;6.090;2023-04-06T02:46:37;11.98;;;6.18;;
75691;SDS011;64307;52.508;6.090;2023-04-06T02:49:02;13.68;;;6.53;;
75691;SDS011;64307;52.508;6.090;2023-04-06T02:51:28;13.18;;;6.07;;
75691;SDS011;64307;52.508;6.090;2023-04-06T02:53:53;12.60;;;6.47;;
75691;SDS011;64307;52.508;6.090;2023-04-06T02:56:19;13.90;;;6.38;;
75691;SDS011;64307;52.508;6.090;2023-04-06T02:58:46;11.80;;;6.15;;
75691;SDS011;64307;52.508;6.090;2023-04-06T03:01:11;11.20;;;6.10;;
75691;SDS011;64307;52.508;6.090;2023-04-06T03:03:36;13.23;;;6.82;;
75691;SDS011;64307;52.508;6.090;2023-04-06T03:06:02;12.50;;;6.45;;
75691;SDS011;64307;52.508;6.090;2023-04-06T03:08:28;11.25;;;6.07;;
75691;SDS011;64307;52.508;6.090;2023-04-06T03:10:53;11.15;;;6.25;;
75691;SDS011;64307;52.508;6.090;2023-04-06T03:13:18;11.68;;;6.28;;
75691;SDS011;64307;52.508;6.090;2023-04-06T03:15:44;13.40;;;6.95;;
75691;SDS011;64307;52.508;6.090;2023-04-06T03:20:35;12.00;;;5.97;;
75691;SDS011;64307;52.508;6.090;2023-04-06T03:23:01;11.55;;;6.55;;
75691;SDS011;64307;52.508;6.090;2023-04-06T03:25:27;13.20;;;6.82;;
75691;SDS011;64307;52.508;6.090;2023-04-06T03:30:18;10.83;;;5.83;;
75691;SDS011;64307;52.508;6.090;2023-04-06T03:32:43;13.73;;;7.15;;
75691;SDS011;64307;52.508;6.090;2023-04-06T03:35:09;12.27;;;6.40;;
75691;SDS011;64307;52.508;6.090;2023-04-06T03:37:35;11.07;;;6.70;;
75691;SDS011;64307;52.508;6.090;2023-04-06T03:40:01;12.98;;;7.15;;
75691;SDS011;64307;52.508;6.090;2023-04-06T03:42:27;15.63;;;7.65;;
75691;SDS011;64307;52.508;6.090;2023-04-06T03:44:52;15.18;;;7.35;;
75691;SDS011;64307;52.508;6.090;2023-04-06T03:47:17;13.45;;;6.82;;
75691;SDS011;64307;52.508;6.090;2023-04-06T03:49:43;12.95;;;7.38;;
75691;SDS011;64307;52.508;6.090;2023-04-06T03:52:09;15.23;;;6.47;;
75691;SDS011;64307;52.508;6.090;2023-04-06T03:54:38;13.57;;;7.82;;
75691;SDS011;64307;52.508;6.090;2023-04-06T03:57:03;12.20;;;6.93;;
75691;SDS011;64307;52.508;6.090;2023-04-06T03:59:29;14.57;;;6.47;;
75691;SDS011;64307;52.508;6.090;2023-04-06T04:01:54;12.98;;;6.60;;
75691;SDS011;64307;52.508;6.090;2023-04-06T04:04:20;13.10;;;7.03;;
75691;SDS011;64307;52.508;6.090;2023-04-06T04:06:45;15.27;;;6.30;;
75691;SDS011;64307;52.508;6.090;2023-04-06T04:09:11;12.05;;;7.10;;
75691;SDS011;64307;52.508;6.090;2023-04-06T04:11:36;11.98;;;7.00;;
75691;SDS011;64307;52.508;6.090;2023-04-06T04:14:02;12.82;;;6.95;;
75691;SDS011;64307;52.508;6.090;2023-04-06T04:16:27;12.10;;;6.60;;
75691;SDS011;64307;52.508;6.090;2023-04-06T04:18:52;13.55;;;7.03;;
75691;SDS011;64307;52.508;6.090;2023-04-06T04:21:18;15.18;;;6.43;;
75691;SDS011;64307;52.508;6.090;2023-04-06T04:23:43;13.88;;;7.18;;
75691;SDS011;64307;52.508;6.090;2023-04-06T04:26:08;11.52;;;6.95;;
75691;SDS011;64307;52.508;6.090;2023-04-06T04:28:34;12.85;;;6.75;;
75691;SDS011;64307;52.508;6.090;2023-04-06T04:30:59;14.63;;;7.53;;
75691;SDS011;64307;52.508;6.090;2023-04-06T04:33:25;13.15;;;6.88;;
75691;SDS011;64307;52.508;6.090;2023-04-06T04:35:50;14.07;;;7.03;;
75691;SDS011;64307;52.508;6.090;2023-04-06T04:38:16;17.65;;;7.40;;
75691;SDS011;64307;52.508;6.090;2023-04-06T04:40:43;11.65;;;6.45;;
75691;SDS011;64307;52.508;6.090;2023-04-06T04:43:08;14.18;;;6.97;;
75691;SDS011;64307;52.508;6.090;2023-04-06T04:45:34;14.45;;;7.22;;
75691;SDS011;64307;52.508;6.090;2023-04-06T04:47:59;21.88;;;7.80;;
75691;SDS011;64307;52.508;6.090;2023-04-06T04:50:25;18.15;;;8.18;;
75691;SDS011;64307;52.508;6.090;2023-04-06T04:52:50;21.50;;;8.80;;
75691;SDS011;64307;52.508;6.090;2023-04-06T04:55:16;20.95;;;8.23;;
75691;SDS011;64307;52.508;6.090;2023-04-06T04:57:42;18.73;;;7.65;;
75691;SDS011;64307;52.508;6.090;2023-04-06T05:00:07;17.73;;;8.32;;
75691;SDS011;64307;52.508;6.090;2023-04-06T05:02:33;18.90;;;8.52;;
75691;SDS011;64307;52.508;6.090;2023-04-06T05:04:59;14.25;;;7.50;;
75691;SDS011;64307;52.508;6.090;2023-04-06T05:07:24;12.43;;;7.50;;
75691;SDS011;64307;52.508;6.090;2023-04-06T05:09:49;14.00;;;7.40;;
75691;SDS011;64307;52.508;6.090;2023-04-06T05:12:15;16.55;;;7.75;;
75691;SDS011;64307;52.508;6.090;2023-04-06T05:14:40;17.13;;;7.82;;
75691;SDS011;64307;52.508;6.090;2023-04-06T05:17:06;12.73;;;7.03;;
75691;SDS011;64307;52.508;6.090;2023-04-06T05:19:31;17.73;;;7.72;;
75691;SDS011;64307;52.508;6.090;2023-04-06T05:21:57;14.02;;;7.88;;
75691;SDS011;64307;52.508;6.090;2023-04-06T05:24:22;13.73;;;7.22;;
75691;SDS011;64307;52.508;6.090;2023-04-06T05:26:49;12.38;;;5.93;;
75691;SDS011;64307;52.508;6.090;2023-04-06T05:29:15;14.60;;;7.35;;
75691;SDS011;64307;52.508;6.090;2023-04-06T05:31:41;15.00;;;7.30;;
75691;SDS011;64307;52.508;6.090;2023-04-06T05:34:07;15.15;;;7.68;;
75691;SDS011;64307;52.508;6.090;2023-04-06T05:36:34;12.45;;;6.97;;
75691;SDS011;64307;52.508;6.090;2023-04-06T05:39:00;13.95;;;7.68;;
75691;SDS011;64307;52.508;6.090;2023-04-06T05:41:25;14.32;;;7.40;;
75691;SDS011;64307;52.508;6.090;2023-04-06T05:43:51;16.17;;;7.93;;
75691;SDS011;64307;52.508;6.090;2023-04-06T05:46:17;14.07;;;7.00;;
75691;SDS011;64307;52.508;6.090;2023-04-06T05:48:43;13.35;;;7.15;;
75691;SDS011;64307;52.508;6.090;2023-04-06T05:51:08;16.60;;;7.72;;
75691;SDS011;64307;52.508;6.090;2023-04-06T05:53:33;12.85;;;7.70;;
75691;SDS011;64307;52.508;6.090;2023-04-06T05:56:02;14.73;;;7.22;;
75691;SDS011;64307;52.508;6.090;2023-04-06T05:58:29;12.82;;;6.90;;
75691;SDS011;64307;52.508;6.090;2023-04-06T06:01:01;15.45;;;6.70;;
75691;SDS011;64307;52.508;6.090;2023-04-06T06:03:28;15.55;;;7.88;;
75691;SDS011;64307;52.508;6.090;2023-04-06T06:08:24;12.02;;;6.80;;
75691;SDS011;64307;52.508;6.090;2023-04-06T06:10:50;14.77;;;6.97;;
75691;SDS011;64307;52.508;6.090;2023-04-06T06:13:15;12.43;;;6.80;;
75691;SDS011;64307;52.508;6.090;2023-04-06T06:15:41;14.23;;;7.30;;
75691;SDS011;64307;52.508;6.090;2023-04-06T06:18:06;12.82;;;7.60;;
75691;SDS011;64307;52.508;6.090;2023-04-06T06:20:31;14.00;;;8.30;;
75691;SDS011;64307;52.508;6.090;2023-04-06T06:22:57;13.27;;;7.35;;
75691;SDS011;64307;52.508;6.090;2023-04-06T06:25:23;15.73;;;8.43;;
75691;SDS011;64307;52.508;6.090;2023-04-06T06:30:14;14.57;;;8.40;;
75691;SDS011;64307;52.508;6.090;2023-04-06T06:32:40;14.02;;;8.98;;
75691;SDS011;64307;52.508;6.090;2023-04-06T06:35:05;17.65;;;9.27;;
75691;SDS011;64307;52.508;6.090;2023-04-06T06:37:31;14.20;;;9.23;;
75691;SDS011;64307;52.508;6.090;2023-04-06T06:39:59;14.60;;;9.23;;
75691;SDS011;64307;52.508;6.090;2023-04-06T06:42:24;14.90;;;9.57;;
75691;SDS011;64307;52.508;6.090;2023-04-06T06:44:50;13.90;;;9.55;;
75691;SDS011;64307;52.508;6.090;2023-04-06T06:47:17;12.77;;;8.40;;
75691;SDS011;64307;52.508;6.090;2023-04-06T06:49:42;16.33;;;9.93;;
75691;SDS011;64307;52.508;6.090;2023-04-06T06:52:08;14.05;;;9.88;;
75691;SDS011;64307;52.508;6.090;2023-04-06T06:54:33;19.52;;;9.52;;
75691;SDS011;64307;52.508;6.090;2023-04-06T06:56:58;12.95;;;8.05;;
75691;SDS011;64307;52.508;6.090;2023-04-06T06:59:25;15.15;;;8.63;;
75691;SDS011;64307;52.508;6.090;2023-04-06T07:01:50;18.05;;;8.50;;
75691;SDS011;64307;52.508;6.090;2023-04-06T07:04:17;15.15;;;8.82;;
75691;SDS011;64307;52.508;6.090;2023-04-06T07:06:42;15.50;;;8.68;;
75691;SDS011;64307;52.508;6.090;2023-04-06T07:09:07;14.20;;;8.32;;
75691;SDS011;64307;52.508;6.090;2023-04-06T07:13:58;14.37;;;8.50;;
75691;SDS011;64307;52.508;6.090;2023-04-06T07:18:48;13.23;;;8.10;;
75691;SDS011;64307;52.508;6.090;2023-04-06T07:23:40;15.20;;;8.65;;
75691;SDS011;64307;52.508;6.090;2023-04-06T07:28:30;17.17;;;8.60;;
75691;SDS011;64307;52.508;6.090;2023-04-06T07:30:55;15.77;;;9.13;;
75691;SDS011;64307;52.508;6.090;2023-04-06T07:33:22;15.73;;;9.63;;
75691;SDS011;64307;52.508;6.090;2023-04-06T07:35:54;13.63;;;9.18;;
75691;SDS011;64307;52.508;6.090;2023-04-06T07:38:20;15.13;;;10.40;;
75691;SDS011;64307;52.508;6.090;2023-04-06T07:40:45;17.27;;;9.82;;
75691;SDS011;64307;52.508;6.090;2023-04-06T07:43:11;18.25;;;11.18;;
75691;SDS011;64307;52.508;6.090;2023-04-06T07:45:36;15.60;;;10.43;;
75691;SDS011;64307;52.508;6.090;2023-04-06T07:48:02;17.00;;;10.50;;
75691;SDS011;64307;52.508;6.090;2023-04-06T07:50:27;15.93;;;10.45;;
75691;SDS011;64307;52.508;6.090;2023-04-06T07:52:52;15.50;;;10.93;;
75691;SDS011;64307;52.508;6.090;2023-04-06T07:55:18;15.82;;;10.48;;
75691;SDS011;64307;52.508;6.090;2023-04-06T07:57:43;14.68;;;10.13;;
75691;SDS011;64307;52.508;6.090;2023-04-06T08:00:09;17.63;;;10.20;;
75691;SDS011;64307;52.508;6.090;2023-04-06T08:02:35;15.90;;;10.02;;
75691;SDS011;64307;52.508;6.090;2023-04-06T08:05:00;19.85;;;9.95;;
75691;SDS011;64307;52.508;6.090;2023-04-06T08:07:26;18.98;;;11.07;;
75691;SDS011;64307;52.508;6.090;2023-04-06T08:09:51;17.05;;;9.88;;
75691;SDS011;64307;52.508;6.090;2023-04-06T08:12:17;19.35;;;10.98;;
75691;SDS011;64307;52.508;6.090;2023-04-06T08:14:42;16.67;;;10.45;;
75691;SDS011;64307;52.508;6.090;2023-04-06T08:17:07;20.67;;;9.82;;
75691;SDS011;64307;52.508;6.090;2023-04-06T08:19:33;15.90;;;10.25;;
75691;SDS011;64307;52.508;6.090;2023-04-06T08:21:58;17.92;;;10.55;;
75691;SDS011;64307;52.508;6.090;2023-04-06T08:24:23;19.13;;;10.85;;
75691;SDS011;64307;52.508;6.090;2023-04-06T08:26:49;21.30;;;10.23;;
75691;SDS011;64307;52.508;6.090;2023-04-06T08:29:16;16.23;;;10.43;;
75691;SDS011;64307;52.508;6.090;2023-04-06T08:31:42;14.93;;;8.95;;
75691;SDS011;64307;52.508;6.090;2023-04-06T08:34:07;19.85;;;9.75;;
75691;SDS011;64307;52.508;6.090;2023-04-06T08:36:32;18.17;;;9.50;;
75691;SDS011;64307;52.508;6.090;2023-04-06T08:38:58;20.35;;;9.75;;
75691;SDS011;64307;52.508;6.090;2023-04-06T08:41:25;16.00;;;9.70;;
75691;SDS011;64307;52.508;6.090;2023-04-06T08:43:54;15.77;;;9.55;;
75691;SDS011;64307;52.508;6.090;2023-04-06T08:46:24;21.70;;;9.63;;
75691;SDS011;64307;52.508;6.090;2023-04-06T08:48:54;18.85;;;10.02;;
75691;SDS011;64307;52.508;6.090;2023-04-06T08:51:21;17.88;;;9.73;;
75691;SDS011;64307;52.508;6.090;2023-04-06T08:53:48;17.25;;;10.65;;
75691;SDS011;64307;52.508;6.090;2023-04-06T08:56:15;18.48;;;8.90;;
75691;SDS011;64307;52.508;6.090;2023-04-06T08:58:41;18.40;;;9.63;;
75691;SDS011;64307;52.508;6.090;2023-04-06T09:01:07;17.33;;;9.55;;
75691;SDS011;64307;52.508;6.090;2023-04-06T09:03:39;19.30;;;9.98;;
75691;SDS011;64307;52.508;6.090;2023-04-06T09:06:05;16.70;;;10.82;;
75691;SDS011;64307;52.508;6.090;2023-04-06T09:08:35;16.27;;;8.90;;
75691;SDS011;64307;52.508;6.090;2023-04-06T09:11:03;17.98;;;9.38;;
75691;SDS011;64307;52.508;6.090;2023-04-06T09:16:00;20.40;;;9.17;;
75691;SDS011;64307;52.508;6.090;2023-04-06T09:18:31;18.63;;;9.70;;
75691;SDS011;64307;52.508;6.090;2023-04-06T09:21:01;19.50;;;9.68;;
75691;SDS011;64307;52.508;6.090;2023-04-06T09:23:28;19.90;;;10.20;;
75691;SDS011;64307;52.508;6.090;2023-04-06T09:28:40;19.48;;;9.15;;
75691;SDS011;64307;52.508;6.090;2023-04-06T09:31:23;16.13;;;9.75;;
75691;SDS011;64307;52.508;6.090;2023-04-06T09:33:57;16.00;;;8.32;;
75691;SDS011;64307;52.508;6.090;2023-04-06T09:36:33;18.98;;;9.40;;
75691;SDS011;64307;52.508;6.090;2023-04-06T09:39:03;20.27;;;9.93;;
75691;SDS011;64307;52.508;6.090;2023-04-06T09:41:33;18.15;;;9.23;;
75691;SDS011;64307;52.508;6.090;2023-04-06T09:44:09;17.70;;;9.45;;
75691;SDS011;64307;52.508;6.090;2023-04-06T09:46:40;20.83;;;9.80;;
75691;SDS011;64307;52.508;6.090;2023-04-06T09:49:08;18.10;;;9.85;;
75691;SDS011;64307;52.508;6.090;2023-04-06T09:54:04;17.83;;;10.10;;
75691;SDS011;64307;52.508;6.090;2023-04-06T09:56:33;18.52;;;10.45;;
75691;SDS011;64307;52.508;6.090;2023-04-06T09:59:12;20.48;;;9.65;;
75691;SDS011;64307;52.508;6.090;2023-04-06T10:01:39;19.80;;;10.35;;
75691;SDS011;64307;52.508;6.090;2023-04-06T10:06:48;23.10;;;9.65;;
75691;SDS011;64307;52.508;6.090;2023-04-06T10:09:17;22.45;;;11.35;;
75691;SDS011;64307;52.508;6.090;2023-04-06T10:11:44;19.60;;;10.93;;
75691;SDS011;64307;52.508;6.090;2023-04-06T10:14:10;18.63;;;10.43;;
75691;SDS011;64307;52.508;6.090;2023-04-06T10:16:36;21.23;;;10.60;;
75691;SDS011;64307;52.508;6.090;2023-04-06T10:19:05;23.58;;;11.25;;
75691;SDS011;64307;52.508;6.090;2023-04-06T10:21:35;22.88;;;10.98;;
75691;SDS011;64307;52.508;6.090;2023-04-06T10:24:08;19.05;;;11.05;;
75691;SDS011;64307;52.508;6.090;2023-04-06T10:26:38;20.30;;;11.60;;
75691;SDS011;64307;52.508;6.090;2023-04-06T10:29:04;18.33;;;9.88;;
75691;SDS011;64307;52.508;6.090;2023-04-06T10:31:30;23.48;;;9.88;;
75691;SDS011;64307;52.508;6.090;2023-04-06T10:36:21;20.00;;;10.85;;
75691;SDS011;64307;52.508;6.090;2023-04-06T10:38:53;19.25;;;8.95;;
75691;SDS011;64307;52.508;6.090;2023-04-06T10:41:21;21.52;;;9.60;;
75691;SDS011;64307;52.508;6.090;2023-04-06T10:43:54;22.42;;;10.35;;
75691;SDS011;64307;52.508;6.090;2023-04-06T10:46:24;22.83;;;11.10;;
75691;SDS011;64307;52.508;6.090;2023-04-06T10:48:50;19.05;;;9.13;;
75691;SDS011;64307;52.508;6.090;2023-04-06T10:51:16;20.85;;;10.45;;
75691;SDS011;64307;52.508;6.090;2023-04-06T10:53:44;19.27;;;11.38;;
75691;SDS011;64307;52.508;6.090;2023-04-06T10:56:11;21.27;;;10.20;;
75691;SDS011;64307;52.508;6.090;2023-04-06T10:58:37;20.13;;;10.35;;
75691;SDS011;64307;52.508;6.090;2023-04-06T11:01:03;21.20;;;11.05;;
75691;SDS011;64307;52.508;6.090;2023-04-06T11:03:28;21.45;;;11.38;;
75691;SDS011;64307;52.508;6.090;2023-04-06T11:05:54;19.88;;;10.30;;
75691;SDS011;64307;52.508;6.090;2023-04-06T11:08:32;21.95;;;11.05;;
75691;SDS011;64307;52.508;6.090;2023-04-06T11:16:20;25.88;;;12.45;;
75691;SDS011;64307;52.508;6.090;2023-04-06T11:19:07;22.02;;;11.40;;
75691;SDS011;64307;52.508;6.090;2023-04-06T11:21:36;21.45;;;12.02;;
75691;SDS011;64307;52.508;6.090;2023-04-06T11:24:09;21.35;;;11.15;;
75691;SDS011;64307;52.508;6.090;2023-04-06T11:29:16;17.85;;;9.13;;
75691;SDS011;64307;52.508;6.090;2023-04-06T11:31:46;21.92;;;11.55;;
75691;SDS011;64307;52.508;6.090;2023-04-06T11:34:17;21.40;;;10.77;;
75691;SDS011;64307;52.508;6.090;2023-04-06T11:36:45;22.58;;;11.15;;
75691;SDS011;64307;52.508;6.090;2023-04-06T11:39:12;22.13;;;10.45;;
75691;SDS011;64307;52.508;6.090;2023-04-06T11:41:38;23.98;;;11.70;;
75691;SDS011;64307;52.508;6.090;2023-04-06T11:44:04;21.08;;;10.70;;
75691;SDS011;64307;52.508;6.090;2023-04-06T11:46:30;21.70;;;10.35;;
75691;SDS011;64307;52.508;6.090;2023-04-06T11:48:58;24.35;;;11.45;;
75691;SDS011;64307;52.508;6.090;2023-04-06T11:51:24;20.15;;;10.18;;
75691;SDS011;64307;52.508;6.090;2023-04-06T11:53:51;25.63;;;11.43;;
75691;SDS011;64307;52.508;6.090;2023-04-06T11:56:26;22.38;;;11.93;;
75691;SDS011;64307;52.508;6.090;2023-04-06T11:58:57;18.23;;;10.13;;
75691;SDS011;64307;52.508;6.090;2023-04-06T12:01:24;21.17;;;10.75;;
75691;SDS011;64307;52.508;6.090;2023-04-06T12:03:50;20.05;;;9.43;;
75691;SDS011;64307;52.508;6.090;2023-04-06T12:06:16;16.00;;;8.23;;
75691;SDS011;64307;52.508;6.090;2023-04-06T12:08:42;16.40;;;7.53;;
75691;SDS011;64307;52.508;6.090;2023-04-06T12:13:33;13.13;;;7.40;;
75691;SDS011;64307;52.508;6.090;2023-04-06T12:15:58;15.35;;;7.05;;
75691;SDS011;64307;52.508;6.090;2023-04-06T12:20:50;13.93;;;7.47;;
75691;SDS011;64307;52.508;6.090;2023-04-06T12:23:16;17.73;;;8.93;;
75691;SDS011;64307;52.508;6.090;2023-04-06T12:25:42;14.15;;;6.97;;
75691;SDS011;64307;52.508;6.090;2023-04-06T12:28:07;13.35;;;6.43;;
75691;SDS011;64307;52.508;6.090;2023-04-06T12:30:34;10.90;;;5.75;;
75691;SDS011;64307;52.508;6.090;2023-04-06T12:33:00;11.18;;;5.68;;
75691;SDS011;64307;52.508;6.090;2023-04-06T12:35:26;12.23;;;5.45;;
75691;SDS011;64307;52.508;6.090;2023-04-06T12:37:51;11.50;;;6.05;;
75691;SDS011;64307;52.508;6.090;2023-04-06T12:40:17;11.25;;;6.35;;
75691;SDS011;64307;52.508;6.090;2023-04-06T12:42:42;10.68;;;6.30;;
75691;SDS011;64307;52.508;6.090;2023-04-06T12:45:08;12.75;;;6.32;;
75691;SDS011;64307;52.508;6.090;2023-04-06T12:47:35;10.52;;;6.45;;
75691;SDS011;64307;52.508;6.090;2023-04-06T12:50:01;12.25;;;6.40;;
75691;SDS011;64307;52.508;6.090;2023-04-06T12:52:27;12.07;;;6.78;;
75691;SDS011;64307;52.508;6.090;2023-04-06T12:54:55;12.00;;;7.75;;
75691;SDS011;64307;52.508;6.090;2023-04-06T12:57:20;12.05;;;7.22;;
75691;SDS011;64307;52.508;6.090;2023-04-06T12:59:46;12.23;;;6.68;;
75691;SDS011;64307;52.508;6.090;2023-04-06T13:02:11;15.30;;;7.95;;
75691;SDS011;64307;52.508;6.090;2023-04-06T13:04:36;14.70;;;7.85;;
75691;SDS011;64307;52.508;6.090;2023-04-06T13:07:02;15.80;;;8.85;;
75691;SDS011;64307;52.508;6.090;2023-04-06T13:09:27;16.23;;;8.63;;
75691;SDS011;64307;52.508;6.090;2023-04-06T13:11:52;15.30;;;9.07;;
75691;SDS011;64307;52.508;6.090;2023-04-06T13:14:18;14.27;;;8.48;;
75691;SDS011;64307;52.508;6.090;2023-04-06T13:16:43;14.60;;;8.68;;
75691;SDS011;64307;52.508;6.090;2023-04-06T13:19:08;18.10;;;10.63;;
75691;SDS011;64307;52.508;6.090;2023-04-06T13:21:35;15.77;;;9.35;;
75691;SDS011;64307;52.508;6.090;2023-04-06T13:24:00;14.98;;;9.30;;
75691;SDS011;64307;52.508;6.090;2023-04-06T13:26:26;17.00;;;9.38;;
75691;SDS011;64307;52.508;6.090;2023-04-06T13:28:51;17.20;;;9.07;;
75691;SDS011;64307;52.508;6.090;2023-04-06T13:31:17;18.40;;;10.02;;
75691;SDS011;64307;52.508;6.090;2023-04-06T13:36:07;16.73;;;8.87;;
75691;SDS011;64307;52.508;6.090;2023-04-06T13:38:33;17.63;;;8.93;;
75691;SDS011;64307;52.508;6.090;2023-04-06T13:40:58;20.48;;;9.70;;
75691;SDS011;64307;52.508;6.090;2023-04-06T13:43:24;19.38;;;9.55;;
75691;SDS011;64307;52.508;6.090;2023-04-06T13:45:55;17.77;;;8.85;;
75691;SDS011;64307;52.508;6.090;2023-04-06T13:48:22;16.92;;;8.82;;
75691;SDS011;64307;52.508;6.090;2023-04-06T13:53:14;18.33;;;9.73;;
75691;SDS011;64307;52.508;6.090;2023-04-06T13:58:05;17.25;;;8.43;;
75691;SDS011;64307;52.508;6.090;2023-04-06T14:02:55;14.02;;;6.78;;
75691;SDS011;64307;52.508;6.090;2023-04-06T14:05:21;15.23;;;7.63;;
75691;SDS011;64307;52.508;6.090;2023-04-06T14:07:48;12.40;;;7.20;;
75691;SDS011;64307;52.508;6.090;2023-04-06T14:12:40;11.55;;;6.03;;
75691;SDS011;64307;52.508;6.090;2023-04-06T14:15:07;11.70;;;6.07;;
75691;SDS011;64307;52.508;6.090;2023-04-06T14:17:35;11.25;;;5.85;;
75691;SDS011;64307;52.508;6.090;2023-04-06T14:22:27;8.90;;;4.78;;
75691;SDS011;64307;52.508;6.090;2023-04-06T14:24:52;10.53;;;5.03;;
75691;SDS011;64307;52.508;6.090;2023-04-06T14:27:17;8.30;;;3.83;;
75691;SDS011;64307;52.508;6.090;2023-04-06T14:29:43;11.18;;;4.80;;
75691;SDS011;64307;52.508;6.090;2023-04-06T14:32:08;10.37;;;4.97;;
75691;SDS011;64307;52.508;6.090;2023-04-06T14:34:36;10.02;;;5.13;;
75691;SDS011;64307;52.508;6.090;2023-04-06T14:37:02;9.30;;;4.28;;
75691;SDS011;64307;52.508;6.090;2023-04-06T14:39:27;9.75;;;4.78;;
75691;SDS011;64307;52.508;6.090;2023-04-06T14:41:53;7.40;;;3.67;;
75691;SDS011;64307;52.508;6.090;2023-04-06T14:44:18;6.47;;;3.33;;
75691;SDS011;64307;52.508;6.090;2023-04-06T14:46:43;8.83;;;4.80;;
75691;SDS011;64307;52.508;6.090;2023-04-06T14:49:08;7.00;;;3.33;;
75691;SDS011;64307;52.508;6.090;2023-04-06T14:51:34;6.75;;;3.13;;
75691;SDS011;64307;52.508;6.090;2023-04-06T14:54:00;8.35;;;4.15;;
75691;SDS011;64307;52.508;6.090;2023-04-06T14:56:27;11.32;;;5.13;;
75691;SDS011;64307;52.508;6.090;2023-04-06T14:58:53;6.72;;;3.17;;
75691;SDS011;64307;52.508;6.090;2023-04-06T15:01:19;7.38;;;3.10;;
75691;SDS011;64307;52.508;6.090;2023-04-06T15:03:45;8.30;;;3.67;;
75691;SDS011;64307;52.508;6.090;2023-04-06T15:06:11;9.48;;;4.65;;
75691;SDS011;64307;52.508;6.090;2023-04-06T15:08:40;7.47;;;3.90;;
75691;SDS011;64307;52.508;6.090;2023-04-06T15:11:06;7.80;;;4.45;;
75691;SDS011;64307;52.508;6.090;2023-04-06T15:13:32;10.60;;;4.85;;
75691;SDS011;64307;52.508;6.090;2023-04-06T15:15:57;8.70;;;4.70;;
75691;SDS011;64307;52.508;6.090;2023-04-06T15:18:22;9.23;;;4.87;;
75691;SDS011;64307;52.508;6.090;2023-04-06T15:20:47;11.50;;;5.73;;
75691;SDS011;64307;52.508;6.090;2023-04-06T15:23:13;8.27;;;4.63;;
75691;SDS011;64307;52.508;6.090;2023-04-06T15:25:39;8.95;;;4.82;;
75691;SDS011;64307;52.508;6.090;2023-04-06T15:28:06;9.35;;;4.60;;
75691;SDS011;64307;52.508;6.090;2023-04-06T15:30:31;10.52;;;5.05;;